createdAt,value
2022-11-29T00:02:56.819Z,8.20
2022-11-29T00:06:58.485Z,8.18
2022-11-29T00:11:07.848Z,8.18
2022-11-29T00:15:09.351Z,8.18
2022-11-29T00:19:12.652Z,8.18
2022-11-29T00:23:14.243Z,8.17
2022-11-29T00:27:15.874Z,8.18
2022-11-29T00:31:30.356Z,8.17
2022-11-29T00:35:32.111Z,8.17
2022-11-29T00:39:33.692Z,8.17
2022-11-29T00:43:35.512Z,8.14
2022-11-29T00:47:37.121Z,8.17
2022-11-29T00:51:38.725Z,8.17
2022-11-29T00:55:40.357Z,8.17
2022-11-29T00:59:41.932Z,8.17
2022-11-29T01:03:43.711Z,8.18
2022-11-29T01:07:45.380Z,8.18
2022-11-29T01:11:49.376Z,8.18
2022-11-29T01:15:56.672Z,8.20
2022-11-29T01:19:58.566Z,8.21
2022-11-29T01:24:01.430Z,8.20
2022-11-29T01:28:02.975Z,8.21
2022-11-29T01:32:04.700Z,8.21
2022-11-29T01:36:07.404Z,8.22
2022-11-29T01:40:09.200Z,8.24
2022-11-29T01:44:13.726Z,8.24
2022-11-29T01:48:15.732Z,8.24
2022-11-29T01:52:24.019Z,8.25
2022-11-29T01:56:26.115Z,8.25
2022-11-29T02:00:27.675Z,8.27
2022-11-29T02:04:32.725Z,8.25
2022-11-29T02:08:39.144Z,8.27
2022-11-29T02:12:43.503Z,8.28
2022-11-29T02:17:01.314Z,8.27
2022-11-29T02:21:33.960Z,8.25
2022-11-29T02:25:47.578Z,8.28
2022-11-29T02:30:08.632Z,8.27
2022-11-29T02:34:25.985Z,8.28
2022-11-29T02:38:59.509Z,8.27
2022-11-29T02:43:39.838Z,8.28
2022-11-29T02:47:55.639Z,8.27
2022-11-29T02:52:32.398Z,8.28
2022-11-29T02:56:58.207Z,8.28
2022-11-29T03:01:18.342Z,8.28
2022-11-29T03:05:24.525Z,8.28
2022-11-29T03:09:37.960Z,8.28
2022-11-29T03:14:09.375Z,8.28
2022-11-29T03:18:34.767Z,8.28
2022-11-29T03:22:55.023Z,8.29
2022-11-29T03:27:03.562Z,8.29
2022-11-29T03:31:23.635Z,8.29
2022-11-29T03:35:47.967Z,8.28
2022-11-29T03:39:59.328Z,8.29
2022-11-29T03:44:12.999Z,8.29
2022-11-29T03:48:19.139Z,8.28
2022-11-29T03:52:33.847Z,8.28
2022-11-29T03:56:39.640Z,8.31
2022-11-29T04:00:49.940Z,8.29
2022-11-29T04:05:19.698Z,8.29
2022-11-29T04:09:42.484Z,8.31
2022-11-29T04:14:05.608Z,8.31
2022-11-29T04:18:32.051Z,8.31
2022-11-29T04:22:52.681Z,8.32
2022-11-29T04:27:23.398Z,8.34
2022-11-29T04:31:37.167Z,8.36
2022-11-29T04:36:12.689Z,8.36
2022-11-29T04:40:41.604Z,8.36
2022-11-29T04:44:49.123Z,8.34
2022-11-29T04:49:28.343Z,8.36
2022-11-29T04:53:54.570Z,8.36
2022-11-29T04:58:06.858Z,8.36
2022-11-29T05:02:29.370Z,8.34
2022-11-29T05:06:48.205Z,8.34
2022-11-29T05:11:08.325Z,8.34
2022-11-29T05:15:37.892Z,8.34
2022-11-29T05:20:04.784Z,8.36
2022-11-29T05:24:30.984Z,8.37
2022-11-29T05:28:54.710Z,8.37
2022-11-29T05:33:28.977Z,8.36
2022-11-29T05:37:45.525Z,8.36
2022-11-29T05:41:46.985Z,8.36
2022-11-29T05:46:08.174Z,8.34
2022-11-29T05:50:17.755Z,8.37
2022-11-29T05:54:40.727Z,8.37
2022-11-29T05:58:55.884Z,8.36
2022-11-29T06:03:23.713Z,8.36
2022-11-29T06:07:44.616Z,8.31
2022-11-29T06:11:52.071Z,8.32
2022-11-29T06:16:34.902Z,8.32
2022-11-29T06:20:52.716Z,8.34
2022-11-29T06:25:06.962Z,8.32
2022-11-29T06:29:25.237Z,8.31
2022-11-29T06:33:35.305Z,8.32
2022-11-29T06:37:44.222Z,8.32
2022-11-29T06:41:47.046Z,8.32
2022-11-29T06:45:57.322Z,8.34
2022-11-29T06:50:22.117Z,8.31
2022-11-29T06:54:45.357Z,8.31
2022-11-29T06:59:01.537Z,8.27
2022-11-29T07:03:23.101Z,8.22
2022-11-29T07:07:24.988Z,8.17
2022-11-29T07:11:27.068Z,8.17
2022-11-29T07:15:28.931Z,8.17
2022-11-29T07:19:36.578Z,8.18
2022-11-29T07:23:59.738Z,8.18
2022-11-29T07:28:33.354Z,8.18
2022-11-29T07:33:00.308Z,8.14
2022-11-29T07:37:49.846Z,8.17
2022-11-29T07:41:58.531Z,8.14
2022-11-29T07:46:00.427Z,8.17
2022-11-29T07:50:02.106Z,8.14
2022-11-29T07:54:03.782Z,8.20
2022-11-29T07:58:05.312Z,8.21
2022-11-29T08:02:11.607Z,8.22
2022-11-29T08:06:13.312Z,8.24
2022-11-29T08:10:16.507Z,8.29
2022-11-29T08:14:18.013Z,8.32
2022-11-29T08:18:19.613Z,8.37
2022-11-29T08:22:21.154Z,8.40
2022-11-29T08:26:25.542Z,8.45
2022-11-29T08:30:31.361Z,8.47
2022-11-29T08:34:33.004Z,8.54
2022-11-29T08:38:34.702Z,8.57
2022-11-29T08:42:36.289Z,8.63
2022-11-29T08:46:56.205Z,8.67
2022-11-29T08:50:58.212Z,8.71
2022-11-29T08:55:03.121Z,8.76
2022-11-29T08:59:05.931Z,8.80
2022-11-29T09:03:26.863Z,8.86
2022-11-29T09:07:28.599Z,8.88
2022-11-29T09:11:32.519Z,8.94
2022-11-29T09:15:34.347Z,9.00
2022-11-29T09:19:35.917Z,9.04
2022-11-29T09:23:37.589Z,9.10
2022-11-29T09:27:39.135Z,9.15
2022-11-29T09:31:41.368Z,9.19
2022-11-29T09:35:43.020Z,9.23
2022-11-29T09:39:44.636Z,9.27
2022-11-29T09:44:02.299Z,9.27
2022-11-29T09:48:30.988Z,9.31
2022-11-29T09:52:36.545Z,9.30
2022-11-29T09:56:44.953Z,9.31
2022-11-29T10:00:50.591Z,9.32
2022-11-29T10:05:10.065Z,9.35
2022-11-29T10:09:20.415Z,9.35
2022-11-29T10:13:29.675Z,9.38
2022-11-29T10:17:38.447Z,9.40
2022-11-29T10:21:43.239Z,9.44
2022-11-29T10:25:50.510Z,9.45
2022-11-29T10:29:53.100Z,9.48
2022-11-29T10:33:58.021Z,9.52
2022-11-29T10:42:44.955Z,9.52
2022-11-29T10:46:46.864Z,9.59
2022-11-29T10:50:50.545Z,9.67
2022-11-29T10:54:56.828Z,9.75
2022-11-29T10:59:05.038Z,9.77
2022-11-29T11:03:16.506Z,9.77
2022-11-29T11:07:28.966Z,9.80
2022-11-29T11:11:32.490Z,9.80
2022-11-29T11:15:34.053Z,9.77
2022-11-29T11:19:35.767Z,9.71
2022-11-29T11:23:52.081Z,9.63
2022-11-29T11:27:54.511Z,9.62
2022-11-29T11:31:57.975Z,9.65
2022-11-29T11:36:05.436Z,9.65
2022-11-29T11:40:29.653Z,9.65
2022-11-29T11:44:51.242Z,9.63
2022-11-29T11:48:54.017Z,9.63
2022-11-29T11:52:58.799Z,9.63
2022-11-29T11:57:00.428Z,9.62
2022-11-29T12:01:08.073Z,9.60
2022-11-29T12:05:19.178Z,9.60
2022-11-29T12:09:32.764Z,9.65
2022-11-29T12:13:39.814Z,9.65
2022-11-29T12:17:56.078Z,9.65
2022-11-29T12:22:02.860Z,9.67
2022-11-29T12:26:19.261Z,9.68
2022-11-29T12:30:33.752Z,9.67
2022-11-29T12:34:53.676Z,9.65
2022-11-29T12:39:08.641Z,9.60
2022-11-29T12:43:28.715Z,9.59
2022-11-29T12:47:51.910Z,9.58
2022-11-29T12:52:10.736Z,9.60
2022-11-29T12:56:36.751Z,9.60
2022-11-29T13:01:15.552Z,9.60
2022-11-29T13:05:23.146Z,9.62
2022-11-29T13:10:03.202Z,9.62
2022-11-29T13:14:41.510Z,9.62
2022-11-29T13:18:48.670Z,9.62
2022-11-29T13:23:02.982Z,9.63
2022-11-29T13:27:06.113Z,9.65
2022-11-29T13:31:12.544Z,9.67
2022-11-29T13:35:20.250Z,9.70
2022-11-29T13:39:46.311Z,9.67
2022-11-29T13:43:59.810Z,9.68
2022-11-29T13:48:24.967Z,9.67
2022-11-29T13:52:42.439Z,9.68
2022-11-29T13:56:46.410Z,9.70
2022-11-29T14:00:50.787Z,9.71
2022-11-29T14:04:52.637Z,9.74
2022-11-29T14:13:21.475Z,9.73
2022-11-29T14:17:42.976Z,9.75
2022-11-29T14:22:02.982Z,9.74
2022-11-29T14:26:04.547Z,9.73
2022-11-29T14:30:40.593Z,9.71
2022-11-29T14:34:46.762Z,9.71
2022-11-29T14:38:58.639Z,9.70
2022-11-29T14:43:02.141Z,9.67
2022-11-29T14:47:35.407Z,9.68
2022-11-29T15:26:37.070Z,9.26
2022-11-29T15:37:30.897Z,9.34
2022-11-29T15:41:35.611Z,9.37
2022-11-29T15:51:37.599Z,9.42
2022-11-29T15:55:39.345Z,9.42
2022-11-29T15:59:48.891Z,9.44
2022-11-29T16:03:53.258Z,9.48
2022-11-29T16:08:00.362Z,9.48
2022-11-29T16:13:01.190Z,9.48
2022-11-29T16:17:03.902Z,9.48
2022-11-29T16:27:01.484Z,9.48
2022-11-29T16:32:02.114Z,9.48
2022-11-29T16:36:06.162Z,9.45
2022-11-29T16:47:04.716Z,9.49
2022-11-29T16:51:16.131Z,9.44
2022-11-29T16:56:07.838Z,9.45
2022-11-29T17:01:00.849Z,9.45
2022-11-29T17:05:02.517Z,9.48
2022-11-29T17:09:04.574Z,9.48
2022-11-29T17:13:10.403Z,9.48
2022-11-29T17:23:10.236Z,9.44
2022-11-29T17:27:11.760Z,9.44
2022-11-29T17:31:15.780Z,9.42
2022-11-29T17:35:17.461Z,9.42
2022-11-29T17:39:20.029Z,9.42
2022-11-29T17:43:21.611Z,9.42
2022-11-29T17:47:23.139Z,9.40
2022-11-29T17:55:46.749Z,9.40
2022-11-29T17:59:48.442Z,9.40
2022-11-29T18:03:58.254Z,9.38
2022-11-29T18:07:59.855Z,9.38
2022-11-29T18:12:02.396Z,9.38
2022-11-29T18:16:10.060Z,9.38
2022-11-29T18:20:13.942Z,9.35
2022-11-29T18:24:15.576Z,9.37
2022-11-29T18:28:17.220Z,9.37
2022-11-29T18:32:18.769Z,9.35
2022-11-29T18:36:31.928Z,9.35
2022-11-29T18:40:33.634Z,9.35
2022-11-29T18:44:35.261Z,9.34
2022-11-29T18:48:37.593Z,9.34
2022-11-29T18:52:40.788Z,9.32
2022-11-29T18:56:43.643Z,9.34
2022-11-29T19:00:45.319Z,9.32
2022-11-29T19:04:48.696Z,9.32
2022-11-29T19:08:51.654Z,9.31
2022-11-29T19:12:53.362Z,9.31
2022-11-29T19:16:55.040Z,9.31
2022-11-29T19:21:16.206Z,9.30
2022-11-29T19:25:17.789Z,9.27
2022-11-29T19:29:20.300Z,9.30
2022-11-29T19:33:21.905Z,9.26
2022-11-29T19:37:23.523Z,9.26
2022-11-29T19:41:26.540Z,9.24
2022-11-29T19:45:28.201Z,9.22
2022-11-29T19:49:29.811Z,9.19
2022-11-29T19:53:32.278Z,9.16
2022-11-29T19:57:33.845Z,9.16
2022-11-29T20:01:43.660Z,9.13
2022-11-29T20:05:54.384Z,9.10
2022-11-29T20:09:55.906Z,9.10
2022-11-29T20:13:59.815Z,9.10
2022-11-29T20:18:02.232Z,9.06
2022-11-29T20:22:03.841Z,9.04
2022-11-29T20:26:10.060Z,9.06
2022-11-29T20:30:12.269Z,9.08
2022-11-29T20:34:14.844Z,9.08
2022-11-29T20:38:55.708Z,9.08
2022-11-29T20:43:06.632Z,9.06
2022-11-29T20:47:19.245Z,9.01
2022-11-29T20:51:30.449Z,9.00
2022-11-29T20:55:32.543Z,8.97
2022-11-29T20:59:34.108Z,8.94
2022-11-29T21:03:36.264Z,8.91
2022-11-29T21:07:37.864Z,8.86
2022-11-29T21:11:39.856Z,8.83
2022-11-29T21:15:42.339Z,8.80
2022-11-29T21:19:44.211Z,8.78
2022-11-29T21:24:17.962Z,8.76
2022-11-29T21:28:20.275Z,8.71
2022-11-29T21:32:24.415Z,8.68
2022-11-29T21:36:26.027Z,8.68
2022-11-29T21:40:28.117Z,8.70
2022-11-29T21:44:29.712Z,8.70
2022-11-29T21:48:37.955Z,8.71
2022-11-29T21:52:39.967Z,8.75
2022-11-29T21:56:41.579Z,8.79
2022-11-29T22:00:43.526Z,8.79
2022-11-29T22:04:45.716Z,8.82
2022-11-29T22:08:48.795Z,8.83
2022-11-29T22:12:52.533Z,8.82
2022-11-29T22:16:59.125Z,8.85
2022-11-29T22:21:06.378Z,8.86
2022-11-29T22:25:08.349Z,8.88
2022-11-29T22:29:11.647Z,8.88
2022-11-29T22:33:13.652Z,8.86
2022-11-29T22:37:15.274Z,8.86
2022-11-29T22:41:17.725Z,8.86
2022-11-29T22:45:19.222Z,8.86
2022-11-29T22:49:20.799Z,8.88
2022-11-29T22:53:22.347Z,8.88
2022-11-29T22:57:23.903Z,8.88
2022-11-29T23:01:28.108Z,8.88
2022-11-29T23:05:32.507Z,8.88
2022-11-29T23:09:34.232Z,8.85
2022-11-29T23:13:37.665Z,8.83
2022-11-29T23:17:39.162Z,8.80
2022-11-29T23:21:40.993Z,8.75
2022-11-29T23:25:49.548Z,8.78
2022-11-29T23:29:51.121Z,8.73
2022-11-29T23:33:52.829Z,8.71
2022-11-29T23:37:54.445Z,8.68
2022-11-29T23:41:55.937Z,8.65
2022-11-29T23:45:57.944Z,8.63
2022-11-29T23:49:59.463Z,8.64
2022-11-29T23:54:01.104Z,8.63
2022-11-29T23:58:02.687Z,8.60
